Time;durP1;ratioP1;P1;durP2;ratioP2;P2;SDS_P1;SDS_P2;PMS_P1;PMS_P2;Temp;Humidity;BMP_temperature;BMP_pressure;BME280_temperature;BME280_humidity;BME280_pressure;Samples;Min_cycle;Max_cycle;Signal;HPM_P1;HPM_P2
2022/08/14 00:00:01;;;;;;;9.70;6.80;;;;;;;;;;5047598;28;20186;-66
2022/08/14 00:02:27;;;;;;;7.60;6.73;;;;;;;;;;5046489;28;20098;-66
2022/08/14 00:04:53;;;;;;;8.70;6.37;;;;;;;;;;5047861;28;20119;-66
2022/08/14 00:07:19;;;;;;;7.93;6.70;;;;;;;;;;5046468;28;20076;-66
2022/08/14 00:09:45;;;;;;;10.57;7.27;;;;;;;;;;5045741;28;20084;-66
2022/08/14 00:12:12;;;;;;;8.00;6.80;;;;;;;;;;5040860;28;20315;-66
2022/08/14 00:14:38;;;;;;;13.47;7.93;;;;;;;;;;5045048;28;20083;-66
2022/08/14 00:17:04;;;;;;;12.73;7.07;;;;;;;;;;5046529;28;20411;-66
2022/08/14 00:19:30;;;;;;;12.47;7.90;;;;;;;;;;5046153;28;20413;-67
2022/08/14 00:21:56;;;;;;;9.57;6.80;;;;;;;;;;5044719;28;20041;-66
2022/08/14 00:24:23;;;;;;;11.20;7.53;;;;;;;;;;5045911;28;20048;-66
2022/08/14 00:26:49;;;;;;;12.23;7.70;;;;;;;;;;5046725;28;20155;-66
2022/08/14 00:29:15;;;;;;;9.47;7.50;;;;;;;;;;5046961;28;20562;-66
2022/08/14 00:31:41;;;;;;;9.10;7.27;;;;;;;;;;5044981;28;20059;-66
2022/08/14 00:34:07;;;;;;;9.90;7.53;;;;;;;;;;5046223;28;20045;-66
2022/08/14 00:36:33;;;;;;;9.87;7.17;;;;;;;;;;5044885;28;20056;-66
2022/08/14 00:38:59;;;;;;;9.30;8.23;;;;;;;;;;5041923;28;20049;-66
2022/08/14 00:41:29;;;;;;;9.03;7.70;;;;;;;;;;5046260;28;20128;-66
2022/08/14 00:43:55;;;;;;;8.80;7.60;;;;;;;;;;5046780;28;20495;-66
2022/08/14 00:46:21;;;;;;;10.63;8.10;;;;;;;;;;5045755;28;20385;-66
2022/08/14 00:48:47;;;;;;;10.20;7.63;;;;;;;;;;5045906;28;20056;-66
2022/08/14 00:51:14;;;;;;;7.63;6.83;;;;;;;;;;5045011;28;20048;-66
2022/08/14 00:53:41;;;;;;;9.77;8.10;;;;;;;;;;5046204;28;20087;-66
2022/08/14 00:56:07;;;;;;;9.63;7.73;;;;;;;;;;5046521;28;20395;-66
2022/08/14 00:58:34;;;;;;;9.87;7.73;;;;;;;;;;5044975;28;20182;-66
2022/08/14 01:01:11;;;;;;;9.97;8.10;;;;;;;;;;5045059;28;20414;-66
2022/08/14 01:03:38;;;;;;;13.83;7.73;;;;;;;;;;5046030;28;20052;-66
2022/08/14 01:06:09;;;;;;;10.33;7.87;;;;;;;;;;5045494;28;20495;-66
2022/08/14 01:08:36;;;;;;;10.10;8.53;;;;;;;;;;5045394;28;20515;-66
2022/08/14 01:11:02;;;;;;;12.10;9.37;;;;;;;;;;5047082;28;20067;-66
2022/08/14 01:13:31;;;;;;;10.40;8.17;;;;;;;;;;5046738;28;21370;-66
2022/08/14 01:15:58;;;;;;;13.70;8.10;;;;;;;;;;5045625;28;20057;-66
2022/08/14 01:21:13;;;;;;;16.53;8.13;;;;;;;;;;5045632;28;20045;-66
2022/08/14 01:23:41;;;;;;;9.67;7.80;;;;;;;;;;5046173;28;20045;-66
2022/08/14 01:26:07;;;;;;;12.47;8.60;;;;;;;;;;5050344;28;20051;-66
2022/08/14 01:28:37;;;;;;;11.33;8.63;;;;;;;;;;5051132;28;20571;-66
2022/08/14 01:31:05;;;;;;;8.30;7.40;;;;;;;;;;5050346;28;20044;-66
2022/08/14 01:33:31;;;;;;;11.07;7.53;;;;;;;;;;5049733;28;20124;-66
2022/08/14 01:35:59;;;;;;;10.07;7.47;;;;;;;;;;5048847;28;20055;-66
2022/08/14 01:38:25;;;;;;;8.80;7.87;;;;;;;;;;5050624;28;20514;-66
2022/08/14 01:40:52;;;;;;;10.47;7.80;;;;;;;;;;5049875;28;20128;-66
2022/08/14 01:43:18;;;;;;;10.03;8.00;;;;;;;;;;5050887;28;20422;-66
2022/08/14 01:45:44;;;;;;;11.90;8.40;;;;;;;;;;5047211;28;20171;-66
2022/08/14 01:48:12;;;;;;;11.90;8.17;;;;;;;;;;5050005;28;20060;-66
2022/08/14 01:50:38;;;;;;;8.93;7.23;;;;;;;;;;5049100;28;20056;-66
2022/08/14 01:53:04;;;;;;;10.33;7.13;;;;;;;;;;5049802;28;20518;-66
2022/08/14 01:55:30;;;;;;;10.60;8.37;;;;;;;;;;5048748;28;20041;-66
2022/08/14 01:58:00;;;;;;;8.23;6.90;;;;;;;;;;5049478;28;20495;-67
2022/08/14 02:00:26;;;;;;;9.10;8.07;;;;;;;;;;5046990;28;20123;-66
2022/08/14 02:02:52;;;;;;;7.50;6.80;;;;;;;;;;5049794;28;20227;-66
2022/08/14 02:05:18;;;;;;;10.73;7.50;;;;;;;;;;5049766;28;20052;-66
2022/08/14 02:07:45;;;;;;;10.23;7.70;;;;;;;;;;5050456;28;20046;-66
2022/08/14 02:10:13;;;;;;;10.13;7.07;;;;;;;;;;5049252;28;20513;-66
2022/08/14 02:12:39;;;;;;;8.77;7.50;;;;;;;;;;5050199;28;20072;-66
2022/08/14 02:15:08;;;;;;;9.27;7.30;;;;;;;;;;5049679;28;20135;-66
2022/08/14 02:17:34;;;;;;;10.37;7.93;;;;;;;;;;5049459;28;20049;-66
2022/08/14 02:20:00;;;;;;;8.37;7.10;;;;;;;;;;5049276;28;20045;-67
2022/08/14 02:22:26;;;;;;;9.30;7.83;;;;;;;;;;5048343;28;20045;-67
2022/08/14 02:24:52;;;;;;;8.40;7.60;;;;;;;;;;5049886;28;20124;-66
2022/08/14 02:27:19;;;;;;;9.10;6.93;;;;;;;;;;5049269;28;20045;-66
2022/08/14 02:29:46;;;;;;;10.03;7.73;;;;;;;;;;5050110;28;20511;-66
2022/08/14 02:32:15;;;;;;;11.37;7.50;;;;;;;;;;5047107;28;20041;-66
2022/08/14 02:34:41;;;;;;;8.50;7.57;;;;;;;;;;5050138;28;20384;-66
2022/08/14 02:37:09;;;;;;;9.33;7.47;;;;;;;;;;5047946;28;20048;-66
2022/08/14 02:39:53;;;;;;;9.20;7.63;;;;;;;;;;5048398;28;20079;-66
2022/08/14 02:42:20;;;;;;;9.73;7.63;;;;;;;;;;5047987;28;20044;-66
2022/08/14 02:44:47;;;;;;;9.57;7.70;;;;;;;;;;5048623;28;20056;-67
2022/08/14 02:47:14;;;;;;;8.80;7.83;;;;;;;;;;5046351;28;20111;-66
2022/08/14 02:49:40;;;;;;;9.10;8.20;;;;;;;;;;5049625;28;20045;-66
2022/08/14 02:52:07;;;;;;;8.47;7.20;;;;;;;;;;5050216;28;20155;-66
2022/08/14 02:54:34;;;;;;;8.10;6.97;;;;;;;;;;5049218;28;20518;-66
2022/08/14 02:57:05;;;;;;;10.23;8.40;;;;;;;;;;5049537;28;20127;-66
2022/08/14 02:59:32;;;;;;;8.70;7.80;;;;;;;;;;5030857;28;20045;-66
2022/08/14 03:01:58;;;;;;;8.87;7.97;;;;;;;;;;5037752;28;20098;-66
2022/08/14 03:04:29;;;;;;;9.67;8.27;;;;;;;;;;5050108;28;20052;-66
2022/08/14 03:06:56;;;;;;;12.37;8.23;;;;;;;;;;5048520;28;20041;-67
2022/08/14 03:09:22;;;;;;;10.63;8.47;;;;;;;;;;5048041;28;20049;-66
2022/08/14 03:11:48;;;;;;;12.73;8.20;;;;;;;;;;5049010;28;20045;-66
2022/08/14 03:14:14;;;;;;;9.73;8.50;;;;;;;;;;5047320;28;20087;-66
2022/08/14 03:16:41;;;;;;;10.33;7.90;;;;;;;;;;5048823;28;20055;-66
2022/08/14 03:19:08;;;;;;;9.73;8.10;;;;;;;;;;5048917;28;20041;-66
2022/08/14 03:21:35;;;;;;;11.27;8.60;;;;;;;;;;5046442;28;20045;-66
2022/08/14 03:24:11;;;;;;;9.87;8.87;;;;;;;;;;5047050;28;20548;-66
2022/08/14 03:26:44;;;;;;;10.00;8.67;;;;;;;;;;5048692;28;20051;-66
2022/08/14 03:29:12;;;;;;;10.17;9.17;;;;;;;;;;5048085;28;20045;-66
2022/08/14 03:31:39;;;;;;;9.80;8.77;;;;;;;;;;5046947;28;20115;-66
2022/08/14 03:34:09;;;;;;;10.83;8.67;;;;;;;;;;5047559;28;20049;-66
2022/08/14 03:36:35;;;;;;;11.30;8.63;;;;;;;;;;5048358;28;20080;-66
2022/08/14 03:39:03;;;;;;;11.37;9.23;;;;;;;;;;5046594;28;20155;-66
2022/08/14 03:41:30;;;;;;;10.23;8.70;;;;;;;;;;5047393;28;20451;-66
2022/08/14 03:43:57;;;;;;;10.40;8.40;;;;;;;;;;5046241;28;20047;-66
2022/08/14 03:46:27;;;;;;;10.50;9.40;;;;;;;;;;5048175;28;20048;-66
2022/08/14 03:48:53;;;;;;;10.27;9.27;;;;;;;;;;5046978;28;20037;-66
2022/08/14 03:51:20;;;;;;;9.87;8.73;;;;;;;;;;5047970;28;20091;-66
2022/08/14 03:53:47;;;;;;;10.67;9.20;;;;;;;;;;5045932;28;20463;-66
2022/08/14 03:56:14;;;;;;;13.10;9.60;;;;;;;;;;5046801;28;20060;-66
2022/08/14 03:58:47;;;;;;;10.17;9.17;;;;;;;;;;5047430;28;20415;-66
2022/08/14 04:01:13;;;;;;;;;;;;;;;;;;5049142;28;20487;-66
2022/08/14 04:03:39;;;;;;;13.40;9.33;;;;;;;;;;5046515;28;19967;-66
2022/08/14 04:06:07;;;;;;;10.27;9.17;;;;;;;;;;5046749;28;20115;-66
2022/08/14 04:08:52;;;;;;;10.40;9.00;;;;;;;;;;5047474;28;20561;-66
2022/08/14 04:11:18;;;;;;;11.67;8.03;;;;;;;;;;5048873;28;20503;-66
2022/08/14 04:13:45;;;;;;;10.53;9.27;;;;;;;;;;5048189;28;20045;-66
2022/08/14 04:16:21;;;;;;;10.77;9.33;;;;;;;;;;5049377;28;20053;-66
2022/08/14 04:18:55;;;;;;;14.57;9.33;;;;;;;;;;5048909;28;20044;-66
2022/08/14 04:21:24;;;;;;;;;;;;;;;;;;5049488;28;20423;-66
2022/08/14 04:23:51;;;;;;;10.40;9.30;;;;;;;;;;5031139;28;19983;-66
2022/08/14 04:26:18;;;;;;;9.90;8.87;;;;;;;;;;5029306;28;20562;-66
2022/08/14 04:28:45;;;;;;;11.37;8.97;;;;;;;;;;5042865;28;20473;-66
2022/08/14 04:31:11;;;;;;;10.07;8.43;;;;;;;;;;5047874;28;20056;-66
2022/08/14 04:33:37;;;;;;;10.07;9.07;;;;;;;;;;5049184;28;20076;-66
2022/08/14 04:36:04;;;;;;;10.53;8.93;;;;;;;;;;5048673;28;20488;-66
2022/08/14 04:44:01;;;;;;;10.40;9.30;;;;;;;;;;5049112;28;20082;-66
2022/08/14 04:46:27;;;;;;;9.80;8.73;;;;;;;;;;5048860;28;20103;-66
2022/08/14 04:48:54;;;;;;;12.73;9.40;;;;;;;;;;5047861;28;20438;-66
2022/08/14 04:51:26;;;;;;;9.90;8.87;;;;;;;;;;5047559;28;20044;-66
2022/08/14 04:53:52;;;;;;;13.40;8.90;;;;;;;;;;5048746;28;20629;-66
2022/08/14 04:56:21;;;;;;;11.13;9.80;;;;;;;;;;5043153;28;20084;-66
2022/08/14 04:58:47;;;;;;;10.53;8.90;;;;;;;;;;5029405;28;20049;-66
2022/08/14 05:01:14;;;;;;;9.33;8.30;;;;;;;;;;5050125;28;20049;-66
2022/08/14 05:03:40;;;;;;;13.37;9.70;;;;;;;;;;5052774;28;20569;-66
2022/08/14 05:06:07;;;;;;;10.97;9.57;;;;;;;;;;5052204;28;20514;-66
2022/08/14 05:08:34;;;;;;;11.97;9.20;;;;;;;;;;5051483;28;20431;-66
2022/08/14 05:11:01;;;;;;;9.27;8.30;;;;;;;;;;5052811;28;20075;-66
2022/08/14 05:13:28;;;;;;;11.83;8.57;;;;;;;;;;5046374;28;20054;-66
2022/08/14 05:15:56;;;;;;;11.30;9.37;;;;;;;;;;5033234;28;20367;-67
2022/08/14 05:18:23;;;;;;;12.33;9.33;;;;;;;;;;5032854;28;20053;-66
2022/08/14 05:20:50;;;;;;;9.83;8.53;;;;;;;;;;5049057;28;20560;-67
2022/08/14 05:23:17;;;;;;;9.73;7.77;;;;;;;;;;5052655;28;20055;-67
2022/08/14 05:25:45;;;;;;;13.13;9.20;;;;;;;;;;5052701;28;20045;-67
2022/08/14 05:28:17;;;;;;;9.97;8.07;;;;;;;;;;5052192;28;20517;-67
2022/08/14 05:30:47;;;;;;;10.13;9.05;;;;;;;;;;5043167;28;20403;-67
2022/08/14 05:33:15;;;;;;;9.30;8.37;;;;;;;;;;5032175;28;20115;-66
2022/08/14 05:35:41;;;;;;;10.00;7.67;;;;;;;;;;5032343;28;20050;-66
2022/08/14 05:38:12;;;;;;;12.77;8.07;;;;;;;;;;5039306;28;20502;-66
2022/08/14 05:40:39;;;;;;;8.70;7.80;;;;;;;;;;5052408;28;20052;-66
2022/08/14 05:43:05;;;;;;;10.10;8.10;;;;;;;;;;5052347;28;20045;-67
2022/08/14 05:45:33;;;;;;;7.90;7.07;;;;;;;;;;5050482;28;20045;-67
2022/08/14 05:47:59;;;;;;;13.83;7.77;;;;;;;;;;5041157;28;20046;-66
2022/08/14 05:50:25;;;;;;;10.00;7.90;;;;;;;;;;5031123;28;20045;-66
2022/08/14 05:52:52;;;;;;;9.23;7.63;;;;;;;;;;5032311;28;20499;-67
2022/08/14 05:55:18;;;;;;;8.40;7.50;;;;;;;;;;5031981;28;20049;-66
2022/08/14 05:57:53;;;;;;;9.00;7.30;;;;;;;;;;5045145;28;20044;-67
2022/08/14 06:00:21;;;;;;;8.00;6.80;;;;;;;;;;5051784;28;20049;-67
2022/08/14 06:02:47;;;;;;;7.43;6.73;;;;;;;;;;5051941;28;20090;-66
2022/08/14 06:05:13;;;;;;;7.63;6.80;;;;;;;;;;5038673;28;20049;-66
2022/08/14 06:07:39;;;;;;;8.43;7.30;;;;;;;;;;5043668;28;20056;-64
2022/08/14 06:10:06;;;;;;;8.33;7.20;;;;;;;;;;5051310;28;20053;-64
2022/08/14 06:12:32;;;;;;;9.33;6.97;;;;;;;;;;5051942;28;20084;-64
2022/08/14 06:14:59;;;;;;;8.50;7.23;;;;;;;;;;5050922;28;20045;-64
2022/08/14 06:17:25;;;;;;;10.20;7.23;;;;;;;;;;5051505;28;20064;-64
2022/08/14 06:19:51;;;;;;;9.00;6.53;;;;;;;;;;5050849;28;20052;-64
2022/08/14 06:22:17;;;;;;;12.23;7.03;;;;;;;;;;5037837;28;20052;-64
2022/08/14 06:24:44;;;;;;;7.33;6.60;;;;;;;;;;5031317;28;20053;-64
2022/08/14 06:27:10;;;;;;;8.57;7.67;;;;;;;;;;5039585;28;20040;-64
2022/08/14 06:29:37;;;;;;;8.23;7.10;;;;;;;;;;5050811;28;20049;-64
2022/08/14 06:32:03;;;;;;;9.07;6.57;;;;;;;;;;5049924;28;20073;-65
2022/08/14 06:34:30;;;;;;;8.00;6.57;;;;;;;;;;5051500;28;20130;-65
2022/08/14 06:36:56;;;;;;;9.10;6.57;;;;;;;;;;5049381;28;20509;-64
2022/08/14 06:39:23;;;;;;;7.67;6.97;;;;;;;;;;5048047;28;20454;-65
2022/08/14 06:41:49;;;;;;;9.27;6.67;;;;;;;;;;5048774;28;20470;-65
2022/08/14 06:44:15;;;;;;;8.47;6.67;;;;;;;;;;5049933;28;20487;-65
2022/08/14 06:46:41;;;;;;;9.47;7.40;;;;;;;;;;5048867;28;20033;-65
2022/08/14 06:49:07;;;;;;;8.27;7.17;;;;;;;;;;5048894;28;20045;-64
2022/08/14 06:51:34;;;;;;;9.83;6.40;;;;;;;;;;5049232;28;20041;-64
2022/08/14 06:54:00;;;;;;;12.07;7.00;;;;;;;;;;5049013;28;20545;-64
2022/08/14 06:56:26;;;;;;;9.13;6.30;;;;;;;;;;5047031;28;20045;-65
2022/08/14 06:58:52;;;;;;;8.30;6.80;;;;;;;;;;5049107;28;20037;-64
2022/08/14 07:06:48;;;;;;;9.63;6.70;;;;;;;;;;5052280;28;20041;-64
2022/08/14 07:09:14;;;;;;;8.33;6.77;;;;;;;;;;5049365;28;20053;-65
2022/08/14 07:11:41;;;;;;;8.17;6.43;;;;;;;;;;5051511;28;20045;-65
2022/08/14 07:14:07;;;;;;;7.87;6.70;;;;;;;;;;5049082;28;20071;-65
2022/08/14 07:16:33;;;;;;;8.97;6.70;;;;;;;;;;5050111;28;20127;-64
2022/08/14 07:18:59;;;;;;;6.70;5.97;;;;;;;;;;5046711;28;20136;-65
2022/08/14 07:21:25;;;;;;;8.73;6.40;;;;;;;;;;5048998;28;20383;-64
2022/08/14 07:23:51;;;;;;;7.67;6.73;;;;;;;;;;5048394;28;20063;-65
2022/08/14 07:26:17;;;;;;;8.03;6.30;;;;;;;;;;5049430;28;20051;-64
2022/08/14 07:28:44;;;;;;;10.53;6.73;;;;;;;;;;5048560;28;20084;-64
2022/08/14 07:31:11;;;;;;;9.33;6.10;;;;;;;;;;5048455;28;20058;-64
2022/08/14 07:33:41;;;;;;;9.70;7.13;;;;;;;;;;5047432;28;20037;-64
2022/08/14 07:36:09;;;;;;;7.47;6.70;;;;;;;;;;5047876;28;20052;-64
2022/08/14 07:38:35;;;;;;;9.43;6.57;;;;;;;;;;5046192;28;20487;-64
2022/08/14 07:41:04;;;;;;;9.93;6.87;;;;;;;;;;5049088;28;20045;-64
2022/08/14 07:43:30;;;;;;;8.87;5.80;;;;;;;;;;5048076;28;20074;-64
2022/08/14 07:45:56;;;;;;;6.93;5.80;;;;;;;;;;5048383;28;20053;-65
2022/08/14 07:48:22;;;;;;;7.10;5.63;;;;;;;;;;5049239;28;20053;-64
2022/08/14 07:50:49;;;;;;;9.07;5.60;;;;;;;;;;5049205;28;20110;-64
2022/08/14 07:53:15;;;;;;;6.47;5.50;;;;;;;;;;5048863;28;20048;-64
2022/08/14 07:55:42;;;;;;;6.63;5.23;;;;;;;;;;5051116;28;20041;-64
2022/08/14 07:58:09;;;;;;;6.87;5.13;;;;;;;;;;5049481;28;20036;-64
2022/08/14 08:00:35;;;;;;;8.70;5.33;;;;;;;;;;5046771;28;20474;-64
2022/08/14 08:03:02;;;;;;;7.33;5.80;;;;;;;;;;5045761;28;20447;-65
2022/08/14 08:05:28;;;;;;;7.47;5.40;;;;;;;;;;5048519;28;20492;-65
2022/08/14 08:07:54;;;;;;;8.07;5.70;;;;;;;;;;5048969;28;20045;-65
2022/08/14 08:10:31;;;;;;;5.90;5.27;;;;;;;;;;5050283;28;20084;-64
2022/08/14 08:13:02;;;;;;;6.40;4.80;;;;;;;;;;5043275;28;20049;-64
2022/08/14 08:15:31;;;;;;;6.88;5.10;;;;;;;;;;5045499;28;20125;-67
2022/08/14 08:17:57;;;;;;;8.23;5.15;;;;;;;;;;5047528;28;20090;-65
2022/08/14 08:20:25;;;;;;;5.07;4.55;;;;;;;;;;5046885;28;20063;-65
2022/08/14 08:22:51;;;;;;;7.07;5.05;;;;;;;;;;5046856;28;20123;-64
2022/08/14 08:25:18;;;;;;;9.38;5.45;;;;;;;;;;5044969;28;20533;-65
2022/08/14 08:27:57;;;;;;;7.80;5.05;;;;;;;;;;5044653;28;20455;-64
2022/08/14 08:30:24;;;;;;;7.65;4.25;;;;;;;;;;5045813;28;20297;-65
2022/08/14 08:32:51;;;;;;;6.88;4.60;;;;;;;;;;5046254;28;20036;-65
2022/08/14 08:35:19;;;;;;;6.05;4.63;;;;;;;;;;5048867;28;21035;-65
2022/08/14 08:37:46;;;;;;;8.93;4.45;;;;;;;;;;5045243;28;20052;-64
2022/08/14 08:40:21;;;;;;;4.93;3.90;;;;;;;;;;5047284;28;20126;-65
2022/08/14 08:42:48;;;;;;;5.45;3.58;;;;;;;;;;5046555;28;20049;-65
2022/08/14 08:45:17;;;;;;;5.00;4.25;;;;;;;;;;5044687;28;20037;-65
2022/08/14 08:47:43;;;;;;;6.43;4.00;;;;;;;;;;5045010;28;20036;-65
2022/08/14 08:50:20;;;;;;;4.60;4.10;;;;;;;;;;5046846;28;21058;-65
2022/08/14 08:52:50;;;;;;;5.32;4.82;;;;;;;;;;5047878;28;20045;-64
2022/08/14 08:55:23;;;;;;;5.57;3.70;;;;;;;;;;5045826;28;20500;-65
2022/08/14 08:57:49;;;;;;;;;;;;;;;;;;5045729;28;20046;-65
2022/08/14 09:00:16;;;;;;;9.63;4.07;;;;;;;;;;5046955;28;19967;-65
2022/08/14 09:02:53;;;;;;;6.57;4.35;;;;;;;;;;5046883;28;20063;-65
2022/08/14 09:05:19;;;;;;;5.20;3.95;;;;;;;;;;5046404;28;20049;-65
2022/08/14 09:07:45;;;;;;;4.57;3.80;;;;;;;;;;5045558;28;20044;-66
2022/08/14 09:10:11;;;;;;;4.57;3.95;;;;;;;;;;5047574;28;20049;-65
2022/08/14 09:12:38;;;;;;;8.75;4.30;;;;;;;;;;5047335;28;20083;-65
2022/08/14 09:15:05;;;;;;;6.20;4.28;;;;;;;;;;5046125;28;20044;-66
2022/08/14 09:17:32;;;;;;;5.70;3.88;;;;;;;;;;5047949;28;20487;-65
2022/08/14 09:19:58;;;;;;;5.15;4.55;;;;;;;;;;5047540;28;20037;-66
2022/08/14 09:22:24;;;;;;;6.05;4.07;;;;;;;;;;5047786;28;20097;-66
2022/08/14 09:24:51;;;;;;;4.40;4.00;;;;;;;;;;5045752;28;20041;-65
2022/08/14 09:27:17;;;;;;;4.30;3.90;;;;;;;;;;5046656;28;21296;-65
2022/08/14 09:29:43;;;;;;;5.18;4.00;;;;;;;;;;5046385;28;20493;-65
2022/08/14 09:32:13;;;;;;;7.82;4.15;;;;;;;;;;5045968;28;21726;-65
2022/08/14 09:34:58;;;;;;;6.57;4.00;;;;;;;;;;5047788;28;20044;-66
2022/08/14 09:37:30;;;;;;;4.40;3.90;;;;;;;;;;5045987;28;20463;-65
2022/08/14 09:40:08;;;;;;;5.72;4.28;;;;;;;;;;5047612;28;20091;-65
2022/08/14 09:42:42;;;;;;;7.22;3.90;;;;;;;;;;5047284;28;20049;-65
2022/08/14 09:45:14;;;;;;;4.40;4.00;;;;;;;;;;5047301;28;20388;-66
2022/08/14 09:47:45;;;;;;;5.03;4.20;;;;;;;;;;5051120;28;20044;-65
2022/08/14 09:50:32;;;;;;;5.00;3.65;;;;;;;;;;5050214;28;20707;-65
2022/08/14 09:53:01;;;;;;;5.63;3.63;;;;;;;;;;5051098;28;20106;-65
2022/08/14 09:55:31;;;;;;;4.43;4.03;;;;;;;;;;5053759;28;20529;-65
2022/08/14 09:58:17;;;;;;;5.53;3.83;;;;;;;;;;5048999;28;20119;-65
2022/08/14 10:00:43;;;;;;;4.60;3.33;;;;;;;;;;5050458;28;20045;-65
2022/08/14 10:03:09;;;;;;;5.70;3.75;;;;;;;;;;5049259;28;20155;-66
2022/08/14 10:05:35;;;;;;;4.57;4.18;;;;;;;;;;5050926;28;20040;-65
2022/08/14 10:08:02;;;;;;;5.20;3.65;;;;;;;;;;5048298;28;20041;-65
2022/08/14 10:10:30;;;;;;;4.25;3.80;;;;;;;;;;5037525;28;20495;-65
2022/08/14 10:12:56;;;;;;;3.90;3.50;;;;;;;;;;5050084;28;20049;-65
2022/08/14 10:15:24;;;;;;;4.93;4.10;;;;;;;;;;5051372;28;20098;-65
2022/08/14 10:17:52;;;;;;;6.10;4.45;;;;;;;;;;5051102;28;20478;-65
2022/08/14 10:20:21;;;;;;;4.45;3.72;;;;;;;;;;5037242;28;20057;-66
2022/08/14 10:22:50;;;;;;;6.78;4.10;;;;;;;;;;5031222;28;20045;-66
2022/08/14 10:25:16;;;;;;;4.65;3.40;;;;;;;;;;5042306;28;20041;-66
2022/08/14 10:27:45;;;;;;;5.15;3.60;;;;;;;;;;5050896;28;20057;-65
2022/08/14 10:30:15;;;;;;;3.95;3.53;;;;;;;;;;5049725;28;20168;-65
2022/08/14 10:32:45;;;;;;;8.27;3.47;;;;;;;;;;5050528;28;20037;-66
2022/08/14 10:35:13;;;;;;;4.60;3.58;;;;;;;;;;5049184;28;20451;-65
2022/08/14 10:37:40;;;;;;;4.05;3.65;;;;;;;;;;5036240;28;20087;-65
2022/08/14 10:40:06;;;;;;;4.15;3.40;;;;;;;;;;5049147;28;20095;-66
2022/08/14 10:42:36;;;;;;;3.80;3.17;;;;;;;;;;5049803;28;20041;-66
2022/08/14 10:45:03;;;;;;;4.75;3.58;;;;;;;;;;5035514;28;20045;-65
2022/08/14 10:47:35;;;;;;;4.40;3.60;;;;;;;;;;5050559;28;20072;-65
2022/08/14 10:50:01;;;;;;;3.83;3.38;;;;;;;;;;5050626;28;20041;-66
2022/08/14 10:52:33;;;;;;;4.65;3.45;;;;;;;;;;5050612;28;20558;-65
2022/08/14 10:55:12;;;;;;;3.55;3.25;;;;;;;;;;5030357;28;20056;-66
2022/08/14 10:57:58;;;;;;;5.03;3.40;;;;;;;;;;5029572;28;20045;-66
2022/08/14 11:00:27;;;;;;;7.63;2.90;;;;;;;;;;5030418;28;20048;-66
2022/08/14 11:03:01;;;;;;;4.32;3.22;;;;;;;;;;5057031;28;20166;-66
2022/08/14 11:05:40;;;;;;;5.30;3.30;;;;;;;;;;5034203;28;20095;-66
2022/08/14 11:08:06;;;;;;;4.32;3.40;;;;;;;;;;5030115;28;20045;-66
2022/08/14 11:10:39;;;;;;;3.67;3.05;;;;;;;;;;5037643;28;20056;-65
2022/08/14 11:13:05;;;;;;;3.58;3.28;;;;;;;;;;5050292;28;20534;-66
2022/08/14 11:15:32;;;;;;;4.13;3.42;;;;;;;;;;5037084;28;20072;-66
2022/08/14 11:17:59;;;;;;;4.50;2.92;;;;;;;;;;5029920;28;20056;-66
2022/08/14 11:20:28;;;;;;;4.15;3.08;;;;;;;;;;5029943;28;20081;-66
2022/08/14 11:22:55;;;;;;;3.88;2.97;;;;;;;;;;5038069;28;20052;-66
2022/08/14 11:25:22;;;;;;;6.57;3.35;;;;;;;;;;5049676;28;20041;-66
2022/08/14 11:27:49;;;;;;;3.83;3.35;;;;;;;;;;5039675;28;20046;-66
2022/08/14 11:30:18;;;;;;;3.58;3.22;;;;;;;;;;5029815;28;20419;-66
2022/08/14 11:32:47;;;;;;;3.78;3.00;;;;;;;;;;5029818;28;20045;-66
2022/08/14 11:35:20;;;;;;;5.63;3.30;;;;;;;;;;5029831;28;20053;-66
2022/08/14 11:37:53;;;;;;;3.45;2.72;;;;;;;;;;5035769;28;20041;-66
2022/08/14 11:40:20;;;;;;;4.35;2.88;;;;;;;;;;5048594;28;20049;-66
2022/08/14 11:42:55;;;;;;;3.33;3.03;;;;;;;;;;5049775;28;20044;-66
2022/08/14 11:45:22;;;;;;;4.20;3.10;;;;;;;;;;5035454;28;20468;-66
2022/08/14 11:47:48;;;;;;;3.40;2.65;;;;;;;;;;5029569;28;20084;-66
2022/08/14 11:50:18;;;;;;;4.43;2.95;;;;;;;;;;5040230;28;20095;-65
2022/08/14 11:52:44;;;;;;;3.28;2.97;;;;;;;;;;5048358;28;20052;-66
2022/08/14 11:55:12;;;;;;;4.53;3.00;;;;;;;;;;5049228;28;20053;-66
2022/08/14 11:57:39;;;;;;;6.68;3.40;;;;;;;;;;5048946;28;20322;-66
2022/08/14 12:00:08;;;;;;;5.22;3.35;;;;;;;;;;5047454;28;20053;-66
2022/08/14 12:02:34;;;;;;;7.32;2.83;;;;;;;;;;5031648;28;20107;-66
2022/08/14 12:05:00;;;;;;;5.35;3.17;;;;;;;;;;5034645;28;20037;-66
2022/08/14 12:07:26;;;;;;;4.50;3.28;;;;;;;;;;5048419;28;20040;-66
2022/08/14 12:09:54;;;;;;;4.93;3.33;;;;;;;;;;5047901;28;20048;-66
2022/08/14 12:12:21;;;;;;;4.70;3.42;;;;;;;;;;5047278;28;20099;-66
2022/08/14 12:14:59;;;;;;;5.50;3.58;;;;;;;;;;5043734;28;20538;-66
2022/08/14 12:17:28;;;;;;;6.65;3.47;;;;;;;;;;5048740;28;20045;-66
2022/08/14 12:20:03;;;;;;;3.75;3.40;;;;;;;;;;5044210;28;20057;-66
2022/08/14 12:22:34;;;;;;;3.67;3.25;;;;;;;;;;5035299;28;20123;-66
2022/08/14 12:25:00;;;;;;;4.80;3.55;;;;;;;;;;5047580;28;20404;-66
2022/08/14 12:27:43;;;;;;;3.80;3.50;;;;;;;;;;5047167;28;20110;-66
2022/08/14 12:30:12;;;;;;;5.43;3.50;;;;;;;;;;5041673;28;20053;-66
2022/08/14 12:32:47;;;;;;;6.28;3.40;;;;;;;;;;5029276;28;20579;-66
2022/08/14 12:35:13;;;;;;;4.75;3.20;;;;;;;;;;5047462;28;20617;-66
2022/08/14 12:37:47;;;;;;;5.28;3.40;;;;;;;;;;5042436;28;20124;-66
2022/08/14 12:40:14;;;;;;;4.10;3.40;;;;;;;;;;5040672;28;20041;-66
2022/08/14 12:42:43;;;;;;;4.05;3.28;;;;;;;;;;5047755;28;20045;-66
2022/08/14 12:45:12;;;;;;;5.30;3.63;;;;;;;;;;5047581;28;20091;-66
2022/08/14 12:47:41;;;;;;;5.68;3.60;;;;;;;;;;5048283;28;20056;-66
2022/08/14 12:50:07;;;;;;;4.53;3.30;;;;;;;;;;5045800;28;20157;-66
2022/08/14 12:52:40;;;;;;;4.95;3.13;;;;;;;;;;5040441;28;20453;-66
2022/08/14 12:55:16;;;;;;;5.15;3.25;;;;;;;;;;5036630;28;20051;-66
2022/08/14 12:57:45;;;;;;;4.68;3.33;;;;;;;;;;5048065;28;20442;-66
2022/08/14 13:00:17;;;;;;;3.25;2.95;;;;;;;;;;5047371;28;20523;-66
2022/08/14 13:02:44;;;;;;;4.07;3.65;;;;;;;;;;5045439;28;20091;-66
2022/08/14 13:05:12;;;;;;;5.13;3.03;;;;;;;;;;5047625;28;20057;-66
2022/08/14 13:07:41;;;;;;;4.18;3.15;;;;;;;;;;5048223;28;20041;-66
2022/08/14 13:10:09;;;;;;;3.60;3.17;;;;;;;;;;5035942;28;20049;-66
2022/08/14 13:12:36;;;;;;;4.32;3.10;;;;;;;;;;5028366;28;20171;-67
2022/08/14 13:15:03;;;;;;;4.10;3.10;;;;;;;;;;5035374;28;20094;-66
2022/08/14 13:17:31;;;;;;;5.50;3.40;;;;;;;;;;5047391;28;20091;-66
2022/08/14 13:19:59;;;;;;;5.68;3.53;;;;;;;;;;5047906;28;20051;-67
2022/08/14 13:22:26;;;;;;;5.60;3.33;;;;;;;;;;5052101;28;20045;-67
2022/08/14 13:24:53;;;;;;;3.67;3.38;;;;;;;;;;5052222;28;20206;-66
2022/08/14 13:27:23;;;;;;;6.28;3.67;;;;;;;;;;5038277;28;20186;-66
2022/08/14 13:29:55;;;;;;;4.82;3.45;;;;;;;;;;5051277;28;20045;-67
2022/08/14 13:32:21;;;;;;;;;;;;;;;;;;5052184;28;20431;-65
2022/08/14 13:34:48;;;;;;;6.60;3.58;;;;;;;;;;5051967;28;20054;-65
2022/08/14 13:37:15;;;;;;;5.70;4.03;;;;;;;;;;5051446;28;20576;-66
2022/08/14 13:39:45;;;;;;;3.80;3.50;;;;;;;;;;5049052;28;20048;-66
2022/08/14 13:42:13;;;;;;;4.03;3.63;;;;;;;;;;5039111;28;20052;-66
2022/08/14 13:44:39;;;;;;;3.63;3.33;;;;;;;;;;5040008;28;20052;-66
2022/08/14 13:47:05;;;;;;;4.82;3.80;;;;;;;;;;5051543;28;20052;-66
2022/08/14 13:49:32;;;;;;;3.80;3.45;;;;;;;;;;5035145;28;20045;-65
2022/08/14 13:52:00;;;;;;;3.38;3.08;;;;;;;;;;5041965;28;20037;-65
2022/08/14 13:54:30;;;;;;;3.28;2.92;;;;;;;;;;5050659;28;20045;-66
2022/08/14 13:56:58;;;;;;;3.88;3.25;;;;;;;;;;5051180;28;20138;-66
2022/08/14 13:59:27;;;;;;;5.13;3.60;;;;;;;;;;5051093;28;20055;-66
2022/08/14 14:01:55;;;;;;;3.92;3.20;;;;;;;;;;5044920;28;20037;-66
2022/08/14 14:04:23;;;;;;;3.85;3.45;;;;;;;;;;5050140;28;20049;-66
2022/08/14 14:06:50;;;;;;;4.43;3.60;;;;;;;;;;5047859;28;20127;-66
2022/08/14 14:09:21;;;;;;;9.27;3.97;;;;;;;;;;5048955;28;20061;-66
2022/08/14 14:11:47;;;;;;;5.90;3.47;;;;;;;;;;5049967;28;20124;-66
2022/08/14 14:14:13;;;;;;;4.03;3.00;;;;;;;;;;5044745;28;20751;-66
2022/08/14 14:16:39;;;;;;;3.95;2.92;;;;;;;;;;5050471;28;20478;-66
2022/08/14 14:19:06;;;;;;;3.65;3.33;;;;;;;;;;5050348;28;20068;-66
2022/08/14 14:21:33;;;;;;;4.03;3.53;;;;;;;;;;5045081;28;20596;-66
2022/08/14 14:24:00;;;;;;;3.95;2.80;;;;;;;;;;5049546;28;20036;-66
2022/08/14 14:26:26;;;;;;;3.10;2.80;;;;;;;;;;5049328;28;20048;-66
2022/08/14 14:28:56;;;;;;;4.07;3.00;;;;;;;;;;5049802;28;20060;-66
2022/08/14 14:31:23;;;;;;;3.50;3.20;;;;;;;;;;5048521;28;20443;-66
2022/08/14 14:33:50;;;;;;;4.65;2.92;;;;;;;;;;5049205;28;20040;-66
2022/08/14 14:36:20;;;;;;;3.97;3.30;;;;;;;;;;5048659;28;20041;-66
2022/08/14 14:38:50;;;;;;;4.53;3.10;;;;;;;;;;5049390;28;20041;-66
2022/08/14 14:41:17;;;;;;;4.60;2.78;;;;;;;;;;5048338;28;20085;-65
2022/08/14 14:43:46;;;;;;;3.60;3.25;;;;;;;;;;5049084;28;20057;-65
2022/08/14 14:46:14;;;;;;;3.30;2.92;;;;;;;;;;5049378;28;20056;-66
2022/08/14 14:48:43;;;;;;;4.65;3.20;;;;;;;;;;5049418;28;20060;-65
2022/08/14 14:51:10;;;;;;;3.35;3.05;;;;;;;;;;5049119;28;20513;-66
2022/08/14 14:53:37;;;;;;;4.30;2.97;;;;;;;;;;5049456;28;20045;-65
2022/08/14 14:56:03;;;;;;;4.85;2.95;;;;;;;;;;5048978;28;20502;-65
2022/08/14 14:58:29;;;;;;;3.45;3.10;;;;;;;;;;5049135;28;20052;-65